sensor_id;sensor_type;location;lat;lon;timestamp;temperature;humidity
53978;DHT22;39886;47.984;-1.586;2022-11-04T00:01:56;18.90;70.80
53978;DHT22;39886;47.984;-1.586;2022-11-04T00:04:24;18.90;70.80
53978;DHT22;39886;47.984;-1.586;2022-11-04T00:06:51;18.90;70.80
53978;DHT22;39886;47.984;-1.586;2022-11-04T00:09:19;18.90;70.80
53978;DHT22;39886;47.984;-1.586;2022-11-04T00:11:45;18.90;70.80
53978;DHT22;39886;47.984;-1.586;2022-11-04T00:14:31;18.90;70.90
53978;DHT22;39886;47.984;-1.586;2022-11-04T00:16:57;18.90;70.90
53978;DHT22;39886;47.984;-1.586;2022-11-04T00:19:42;18.90;70.90
53978;DHT22;39886;47.984;-1.586;2022-11-04T00:22:26;18.90;70.90
53978;DHT22;39886;47.984;-1.586;2022-11-04T00:25:11;18.90;70.90
53978;DHT22;39886;47.984;-1.586;2022-11-04T00:28:08;18.80;70.90
53978;DHT22;39886;47.984;-1.586;2022-11-04T00:30:56;18.90;70.90
53978;DHT22;39886;47.984;-1.586;2022-11-04T00:33:22;18.90;71.00
53978;DHT22;39886;47.984;-1.586;2022-11-04T00:35:54;18.80;70.90
53978;DHT22;39886;47.984;-1.586;2022-11-04T00:38:20;18.80;70.90
53978;DHT22;39886;47.984;-1.586;2022-11-04T00:40:46;18.90;71.00
53978;DHT22;39886;47.984;-1.586;2022-11-04T00:43:12;18.80;71.00
53978;DHT22;39886;47.984;-1.586;2022-11-04T00:45:40;18.80;71.00
53978;DHT22;39886;47.984;-1.586;2022-11-04T00:48:06;18.90;71.00
53978;DHT22;39886;47.984;-1.586;2022-11-04T00:50:31;18.80;71.00
53978;DHT22;39886;47.984;-1.586;2022-11-04T00:53:01;18.80;71.00
53978;DHT22;39886;47.984;-1.586;2022-11-04T00:55:27;18.80;71.00
53978;DHT22;39886;47.984;-1.586;2022-11-04T00:57:54;18.80;71.00
53978;DHT22;39886;47.984;-1.586;2022-11-04T01:00:20;18.80;71.00
53978;DHT22;39886;47.984;-1.586;2022-11-04T01:02:46;18.80;71.00
53978;DHT22;39886;47.984;-1.586;2022-11-04T01:05:12;18.80;71.00
53978;DHT22;39886;47.984;-1.586;2022-11-04T01:07:38;18.80;71.00
53978;DHT22;39886;47.984;-1.586;2022-11-04T01:10:04;18.80;71.10
53978;DHT22;39886;47.984;-1.586;2022-11-04T01:12:30;18.80;71.10
53978;DHT22;39886;47.984;-1.586;2022-11-04T01:14:56;18.80;71.10
53978;DHT22;39886;47.984;-1.586;2022-11-04T01:17:22;18.80;71.10
53978;DHT22;39886;47.984;-1.586;2022-11-04T01:19:48;18.80;71.10
53978;DHT22;39886;47.984;-1.586;2022-11-04T01:22:13;18.80;71.20
53978;DHT22;39886;47.984;-1.586;2022-11-04T01:24:39;18.80;71.10
53978;DHT22;39886;47.984;-1.586;2022-11-04T01:27:05;18.80;71.20
53978;DHT22;39886;47.984;-1.586;2022-11-04T01:29:30;18.80;71.20
53978;DHT22;39886;47.984;-1.586;2022-11-04T01:31:56;18.70;71.20
53978;DHT22;39886;47.984;-1.586;2022-11-04T01:34:22;18.80;71.20
53978;DHT22;39886;47.984;-1.586;2022-11-04T01:36:48;18.80;71.20
53978;DHT22;39886;47.984;-1.586;2022-11-04T01:39:13;18.70;71.20
53978;DHT22;39886;47.984;-1.586;2022-11-04T01:41:39;18.70;71.20
53978;DHT22;39886;47.984;-1.586;2022-11-04T01:47:35;18.80;71.20
53978;DHT22;39886;47.984;-1.586;2022-11-04T01:50:09;18.70;71.20
53978;DHT22;39886;47.984;-1.586;2022-11-04T01:52:47;18.70;71.30
53978;DHT22;39886;47.984;-1.586;2022-11-04T01:55:27;18.70;71.30
53978;DHT22;39886;47.984;-1.586;2022-11-04T01:57:58;18.70;71.40
53978;DHT22;39886;47.984;-1.586;2022-11-04T02:00:24;18.70;71.40
53978;DHT22;39886;47.984;-1.586;2022-11-04T02:02:56;18.70;71.40
53978;DHT22;39886;47.984;-1.586;2022-11-04T02:05:23;18.70;71.40
53978;DHT22;39886;47.984;-1.586;2022-11-04T02:07:52;18.70;71.50
53978;DHT22;39886;47.984;-1.586;2022-11-04T02:10:21;18.70;71.40
53978;DHT22;39886;47.984;-1.586;2022-11-04T02:12:48;18.70;71.50
53978;DHT22;39886;47.984;-1.586;2022-11-04T02:15:15;18.70;71.50
53978;DHT22;39886;47.984;-1.586;2022-11-04T02:18:09;18.60;71.40
53978;DHT22;39886;47.984;-1.586;2022-11-04T02:31:35;18.60;71.50
53978;DHT22;39886;47.984;-1.586;2022-11-04T02:34:51;18.60;71.50
53978;DHT22;39886;47.984;-1.586;2022-11-04T02:37:45;18.60;71.50
53978;DHT22;39886;47.984;-1.586;2022-11-04T02:43:00;18.60;71.70
53978;DHT22;39886;47.984;-1.586;2022-11-04T02:48:17;18.60;71.70
53978;DHT22;39886;47.984;-1.586;2022-11-04T02:50:50;18.60;71.70
53978;DHT22;39886;47.984;-1.586;2022-11-04T02:53:21;18.60;71.70
53978;DHT22;39886;47.984;-1.586;2022-11-04T02:55:50;18.60;71.70
53978;DHT22;39886;47.984;-1.586;2022-11-04T02:58:22;18.60;71.70
53978;DHT22;39886;47.984;-1.586;2022-11-04T03:00:51;18.60;71.70
53978;DHT22;39886;47.984;-1.586;2022-11-04T03:03:21;18.60;71.70
53978;DHT22;39886;47.984;-1.586;2022-11-04T03:05:51;18.50;71.70
53978;DHT22;39886;47.984;-1.586;2022-11-04T03:08:23;18.50;71.80
53978;DHT22;39886;47.984;-1.586;2022-11-04T03:10:53;18.60;71.80
53978;DHT22;39886;47.984;-1.586;2022-11-04T03:13:32;18.50;71.70
53978;DHT22;39886;47.984;-1.586;2022-11-04T03:16:05;18.50;71.80
53978;DHT22;39886;47.984;-1.586;2022-11-04T03:19:00;18.50;71.80
53978;DHT22;39886;47.984;-1.586;2022-11-04T03:21:28;18.50;71.80
53978;DHT22;39886;47.984;-1.586;2022-11-04T03:23:56;18.50;71.90
53978;DHT22;39886;47.984;-1.586;2022-11-04T03:34:21;18.50;71.90
53978;DHT22;39886;47.984;-1.586;2022-11-04T03:36:46;18.40;71.90
53978;DHT22;39886;47.984;-1.586;2022-11-04T03:39:12;18.40;71.90
53978;DHT22;39886;47.984;-1.586;2022-11-04T03:41:43;18.40;71.90
53978;DHT22;39886;47.984;-1.586;2022-11-04T03:44:09;18.40;71.90
53978;DHT22;39886;47.984;-1.586;2022-11-04T03:46:35;18.40;71.90
53978;DHT22;39886;47.984;-1.586;2022-11-04T03:49:02;18.40;72.00
53978;DHT22;39886;47.984;-1.586;2022-11-04T03:51:28;18.40;71.90
53978;DHT22;39886;47.984;-1.586;2022-11-04T03:53:54;18.40;71.90
53978;DHT22;39886;47.984;-1.586;2022-11-04T03:59:38;18.40;71.90
53978;DHT22;39886;47.984;-1.586;2022-11-04T04:02:11;18.40;71.90
53978;DHT22;39886;47.984;-1.586;2022-11-04T04:04:44;18.40;72.00
53978;DHT22;39886;47.984;-1.586;2022-11-04T04:07:30;18.40;72.60
53978;DHT22;39886;47.984;-1.586;2022-11-04T04:16:02;18.40;72.10
53978;DHT22;39886;47.984;-1.586;2022-11-04T04:18:41;18.40;72.10
53978;DHT22;39886;47.984;-1.586;2022-11-04T04:21:13;18.40;72.10
53978;DHT22;39886;47.984;-1.586;2022-11-04T04:23:40;18.40;72.10
53978;DHT22;39886;47.984;-1.586;2022-11-04T04:26:26;18.40;72.10
53978;DHT22;39886;47.984;-1.586;2022-11-04T04:29:12;18.40;72.10
53978;DHT22;39886;47.984;-1.586;2022-11-04T04:31:39;18.40;72.10
53978;DHT22;39886;47.984;-1.586;2022-11-04T04:34:20;18.30;72.10
53978;DHT22;39886;47.984;-1.586;2022-11-04T04:37:10;18.30;72.10
53978;DHT22;39886;47.984;-1.586;2022-11-04T04:39:55;18.30;72.10
53978;DHT22;39886;47.984;-1.586;2022-11-04T04:42:41;18.30;72.10
53978;DHT22;39886;47.984;-1.586;2022-11-04T04:45:37;18.30;72.10
53978;DHT22;39886;47.984;-1.586;2022-11-04T04:48:10;18.30;72.10
53978;DHT22;39886;47.984;-1.586;2022-11-04T04:50:40;18.30;72.10
53978;DHT22;39886;47.984;-1.586;2022-11-04T04:53:08;18.30;72.20
53978;DHT22;39886;47.984;-1.586;2022-11-04T04:55:33;18.30;72.20
53978;DHT22;39886;47.984;-1.586;2022-11-04T04:57:59;18.30;72.20
53978;DHT22;39886;47.984;-1.586;2022-11-04T05:00:25;18.30;72.10
53978;DHT22;39886;47.984;-1.586;2022-11-04T05:02:51;18.30;72.20
53978;DHT22;39886;47.984;-1.586;2022-11-04T05:05:18;18.30;72.10
53978;DHT22;39886;47.984;-1.586;2022-11-04T05:07:44;18.30;72.10
53978;DHT22;39886;47.984;-1.586;2022-11-04T05:10:11;18.30;72.20
53978;DHT22;39886;47.984;-1.586;2022-11-04T05:12:38;18.30;72.20
53978;DHT22;39886;47.984;-1.586;2022-11-04T05:15:23;18.30;72.20
53978;DHT22;39886;47.984;-1.586;2022-11-04T05:17:53;18.30;72.20
53978;DHT22;39886;47.984;-1.586;2022-11-04T05:20:20;18.30;72.20
53978;DHT22;39886;47.984;-1.586;2022-11-04T05:22:46;18.30;72.20
53978;DHT22;39886;47.984;-1.586;2022-11-04T05:25:11;18.30;72.20
53978;DHT22;39886;47.984;-1.586;2022-11-04T05:27:37;18.30;72.20
53978;DHT22;39886;47.984;-1.586;2022-11-04T05:30:03;18.30;72.20
53978;DHT22;39886;47.984;-1.586;2022-11-04T05:32:29;18.30;72.20
53978;DHT22;39886;47.984;-1.586;2022-11-04T05:34:58;18.30;72.30
53978;DHT22;39886;47.984;-1.586;2022-11-04T05:37:24;18.30;72.30
53978;DHT22;39886;47.984;-1.586;2022-11-04T05:39:50;18.30;72.20
53978;DHT22;39886;47.984;-1.586;2022-11-04T05:42:16;18.30;72.20
53978;DHT22;39886;47.984;-1.586;2022-11-04T05:44:41;18.20;72.20
53978;DHT22;39886;47.984;-1.586;2022-11-04T05:47:07;18.20;72.20
53978;DHT22;39886;47.984;-1.586;2022-11-04T05:49:33;18.20;72.30
53978;DHT22;39886;47.984;-1.586;2022-11-04T05:51:58;18.20;72.30
53978;DHT22;39886;47.984;-1.586;2022-11-04T05:54:24;18.20;72.20
53978;DHT22;39886;47.984;-1.586;2022-11-04T05:56:51;18.20;72.30
53978;DHT22;39886;47.984;-1.586;2022-11-04T05:59:17;18.20;72.30
53978;DHT22;39886;47.984;-1.586;2022-11-04T06:01:43;18.40;72.10
53978;DHT22;39886;47.984;-1.586;2022-11-04T06:04:13;18.50;71.70
53978;DHT22;39886;47.984;-1.586;2022-11-04T06:06:40;18.60;71.30
53978;DHT22;39886;47.984;-1.586;2022-11-04T06:09:06;18.70;71.00
53978;DHT22;39886;47.984;-1.586;2022-11-04T06:11:33;18.80;70.70
53978;DHT22;39886;47.984;-1.586;2022-11-04T06:13:59;18.90;70.50
53978;DHT22;39886;47.984;-1.586;2022-11-04T06:16:25;19.00;70.30
53978;DHT22;39886;47.984;-1.586;2022-11-04T06:18:51;19.10;70.00
53978;DHT22;39886;47.984;-1.586;2022-11-04T06:21:21;19.10;69.80
53978;DHT22;39886;47.984;-1.586;2022-11-04T06:23:50;19.20;69.60
53978;DHT22;39886;47.984;-1.586;2022-11-04T06:26:16;19.30;69.50
53978;DHT22;39886;47.984;-1.586;2022-11-04T06:28:41;19.40;69.30
53978;DHT22;39886;47.984;-1.586;2022-11-04T06:31:09;19.40;69.10
53978;DHT22;39886;47.984;-1.586;2022-11-04T06:33:35;19.50;68.90
53978;DHT22;39886;47.984;-1.586;2022-11-04T06:36:02;19.50;68.80
53978;DHT22;39886;47.984;-1.586;2022-11-04T06:38:30;19.60;68.60
53978;DHT22;39886;47.984;-1.586;2022-11-04T06:40:56;19.60;68.30
53978;DHT22;39886;47.984;-1.586;2022-11-04T06:43:22;19.70;68.20
53978;DHT22;39886;47.984;-1.586;2022-11-04T06:45:55;19.80;68.00
53978;DHT22;39886;47.984;-1.586;2022-11-04T06:48:21;19.80;67.80
53978;DHT22;39886;47.984;-1.586;2022-11-04T06:50:47;19.80;67.60
53978;DHT22;39886;47.984;-1.586;2022-11-04T06:53:13;19.90;67.50
53978;DHT22;39886;47.984;-1.586;2022-11-04T06:55:39;19.90;67.40
53978;DHT22;39886;47.984;-1.586;2022-11-04T06:58:05;19.90;67.60
53978;DHT22;39886;47.984;-1.586;2022-11-04T07:00:30;20.00;67.40
53978;DHT22;39886;47.984;-1.586;2022-11-04T07:02:56;20.00;67.10
53978;DHT22;39886;47.984;-1.586;2022-11-04T07:05:22;20.10;67.00
53978;DHT22;39886;47.984;-1.586;2022-11-04T07:07:48;20.10;66.80
53978;DHT22;39886;47.984;-1.586;2022-11-04T07:10:14;20.10;66.60
53978;DHT22;39886;47.984;-1.586;2022-11-04T07:12:40;20.20;66.60
53978;DHT22;39886;47.984;-1.586;2022-11-04T07:15:06;20.20;67.00
53978;DHT22;39886;47.984;-1.586;2022-11-04T07:17:32;20.20;67.00
53978;DHT22;39886;47.984;-1.586;2022-11-04T07:19:58;20.20;66.80
53978;DHT22;39886;47.984;-1.586;2022-11-04T07:22:23;20.30;66.90
53978;DHT22;39886;47.984;-1.586;2022-11-04T07:24:49;20.30;66.20
53978;DHT22;39886;47.984;-1.586;2022-11-04T07:27:15;20.30;66.00
53978;DHT22;39886;47.984;-1.586;2022-11-04T07:29:40;20.30;65.70
53978;DHT22;39886;47.984;-1.586;2022-11-04T07:32:06;20.40;65.80
53978;DHT22;39886;47.984;-1.586;2022-11-04T07:34:32;20.40;65.60
53978;DHT22;39886;47.984;-1.586;2022-11-04T07:36:57;20.40;65.20
53978;DHT22;39886;47.984;-1.586;2022-11-04T07:39:23;20.50;65.00
53978;DHT22;39886;47.984;-1.586;2022-11-04T07:41:49;20.50;65.20
53978;DHT22;39886;47.984;-1.586;2022-11-04T07:44:15;20.50;65.00
53978;DHT22;39886;47.984;-1.586;2022-11-04T07:46:41;20.50;64.90
53978;DHT22;39886;47.984;-1.586;2022-11-04T07:49:06;20.60;64.60
53978;DHT22;39886;47.984;-1.586;2022-11-04T07:51:33;20.60;65.00
53978;DHT22;39886;47.984;-1.586;2022-11-04T07:53:59;20.60;64.70
53978;DHT22;39886;47.984;-1.586;2022-11-04T07:56:25;20.70;64.50
53978;DHT22;39886;47.984;-1.586;2022-11-04T07:58:51;20.70;64.40
53978;DHT22;39886;47.984;-1.586;2022-11-04T08:01:20;20.70;64.30
53978;DHT22;39886;47.984;-1.586;2022-11-04T08:03:48;20.70;64.10
53978;DHT22;39886;47.984;-1.586;2022-11-04T08:06:16;20.80;64.20
53978;DHT22;39886;47.984;-1.586;2022-11-04T08:08:43;20.80;63.90
53978;DHT22;39886;47.984;-1.586;2022-11-04T08:11:14;20.90;63.90
53978;DHT22;39886;47.984;-1.586;2022-11-04T08:13:41;20.90;63.80
53978;DHT22;39886;47.984;-1.586;2022-11-04T08:16:10;21.00;64.00
53978;DHT22;39886;47.984;-1.586;2022-11-04T08:18:38;21.00;63.80
53978;DHT22;39886;47.984;-1.586;2022-11-04T08:21:04;21.10;63.90
53978;DHT22;39886;47.984;-1.586;2022-11-04T08:23:31;21.10;63.80
53978;DHT22;39886;47.984;-1.586;2022-11-04T08:25:57;21.10;64.20
53978;DHT22;39886;47.984;-1.586;2022-11-04T08:28:23;21.20;64.40
53978;DHT22;39886;47.984;-1.586;2022-11-04T08:31:23;21.20;63.90
53978;DHT22;39886;47.984;-1.586;2022-11-04T08:33:50;21.30;64.10
53978;DHT22;39886;47.984;-1.586;2022-11-04T08:36:25;21.40;64.30
53978;DHT22;39886;47.984;-1.586;2022-11-04T08:38:52;21.30;64.20
53978;DHT22;39886;47.984;-1.586;2022-11-04T08:41:21;21.40;64.30
53978;DHT22;39886;47.984;-1.586;2022-11-04T08:43:48;21.40;64.00
53978;DHT22;39886;47.984;-1.586;2022-11-04T08:46:14;21.40;64.20
53978;DHT22;39886;47.984;-1.586;2022-11-04T08:48:42;21.50;63.90
53978;DHT22;39886;47.984;-1.586;2022-11-04T08:51:17;21.50;63.90
53978;DHT22;39886;47.984;-1.586;2022-11-04T08:53:43;21.60;63.70
53978;DHT22;39886;47.984;-1.586;2022-11-04T08:56:11;21.60;63.60
53978;DHT22;39886;47.984;-1.586;2022-11-04T08:58:37;21.60;63.30
53978;DHT22;39886;47.984;-1.586;2022-11-04T09:01:04;21.70;63.60
53978;DHT22;39886;47.984;-1.586;2022-11-04T09:03:29;21.70;63.30
53978;DHT22;39886;47.984;-1.586;2022-11-04T09:05:57;21.70;63.40
53978;DHT22;39886;47.984;-1.586;2022-11-04T09:08:23;21.80;63.20
53978;DHT22;39886;47.984;-1.586;2022-11-04T09:10:48;21.80;63.50
53978;DHT22;39886;47.984;-1.586;2022-11-04T09:13:15;21.80;63.20
53978;DHT22;39886;47.984;-1.586;2022-11-04T09:15:41;21.90;62.40
53978;DHT22;39886;47.984;-1.586;2022-11-04T09:18:07;21.90;63.10
53978;DHT22;39886;47.984;-1.586;2022-11-04T09:20:33;21.90;62.70
53978;DHT22;39886;47.984;-1.586;2022-11-04T09:22:59;21.90;62.80
53978;DHT22;39886;47.984;-1.586;2022-11-04T09:25:25;22.00;62.50
53978;DHT22;39886;47.984;-1.586;2022-11-04T09:27:51;22.00;62.50
53978;DHT22;39886;47.984;-1.586;2022-11-04T09:30:17;22.00;63.00
53978;DHT22;39886;47.984;-1.586;2022-11-04T09:32:42;22.00;63.00
53978;DHT22;39886;47.984;-1.586;2022-11-04T09:35:08;22.00;62.60
53978;DHT22;39886;47.984;-1.586;2022-11-04T09:37:34;22.10;62.40
53978;DHT22;39886;47.984;-1.586;2022-11-04T09:39:59;22.10;62.00
53978;DHT22;39886;47.984;-1.586;2022-11-04T09:42:47;22.10;62.20
53978;DHT22;39886;47.984;-1.586;2022-11-04T09:45:16;22.20;62.00
53978;DHT22;39886;47.984;-1.586;2022-11-04T09:47:46;22.20;61.90
53978;DHT22;39886;47.984;-1.586;2022-11-04T09:50:22;22.20;61.90
53978;DHT22;39886;47.984;-1.586;2022-11-04T09:52:54;22.20;61.80
53978;DHT22;39886;47.984;-1.586;2022-11-04T09:57:57;22.20;61.90
53978;DHT22;39886;47.984;-1.586;2022-11-04T10:00:23;22.10;62.10
53978;DHT22;39886;47.984;-1.586;2022-11-04T10:03:07;22.00;62.20
53978;DHT22;39886;47.984;-1.586;2022-11-04T10:06:04;21.90;62.50
53978;DHT22;39886;47.984;-1.586;2022-11-04T10:08:51;21.80;62.60
53978;DHT22;39886;47.984;-1.586;2022-11-04T10:12:28;21.70;62.80
53978;DHT22;39886;47.984;-1.586;2022-11-04T10:23:09;21.50;63.50
53978;DHT22;39886;47.984;-1.586;2022-11-04T10:26:04;21.50;63.60
53978;DHT22;39886;47.984;-1.586;2022-11-04T10:28:41;21.40;63.40
53978;DHT22;39886;47.984;-1.586;2022-11-04T10:31:12;21.40;63.50
53978;DHT22;39886;47.984;-1.586;2022-11-04T10:34:04;21.40;63.50
53978;DHT22;39886;47.984;-1.586;2022-11-04T10:36:28;21.30;63.50
53978;DHT22;39886;47.984;-1.586;2022-11-04T10:38:55;21.30;63.40
53978;DHT22;39886;47.984;-1.586;2022-11-04T10:41:29;21.30;63.50
53978;DHT22;39886;47.984;-1.586;2022-11-04T10:44:03;21.30;63.60
53978;DHT22;39886;47.984;-1.586;2022-11-04T10:46:51;21.20;63.70
53978;DHT22;39886;47.984;-1.586;2022-11-04T10:52:07;21.20;63.70
53978;DHT22;39886;47.984;-1.586;2022-11-04T10:54:45;21.20;63.80
53978;DHT22;39886;47.984;-1.586;2022-11-04T10:57:13;21.20;63.90
53978;DHT22;39886;47.984;-1.586;2022-11-04T11:02:41;21.10;64.00
53978;DHT22;39886;47.984;-1.586;2022-11-04T11:05:26;21.10;63.70
53978;DHT22;39886;47.984;-1.586;2022-11-04T11:07:55;21.10;63.80
53978;DHT22;39886;47.984;-1.586;2022-11-04T11:10:49;21.10;63.70
53978;DHT22;39886;47.984;-1.586;2022-11-04T11:13:27;21.10;63.90
53978;DHT22;39886;47.984;-1.586;2022-11-04T11:16:10;21.10;63.70
53978;DHT22;39886;47.984;-1.586;2022-11-04T11:18:36;21.10;63.70
53978;DHT22;39886;47.984;-1.586;2022-11-04T11:21:12;21.10;63.90
53978;DHT22;39886;47.984;-1.586;2022-11-04T11:23:42;21.10;63.50
53978;DHT22;39886;47.984;-1.586;2022-11-04T11:26:21;21.10;63.70
53978;DHT22;39886;47.984;-1.586;2022-11-04T11:28:56;21.00;63.60
53978;DHT22;39886;47.984;-1.586;2022-11-04T11:31:37;21.00;63.70
53978;DHT22;39886;47.984;-1.586;2022-11-04T11:34:24;21.00;63.70
53978;DHT22;39886;47.984;-1.586;2022-11-04T11:36:53;21.00;64.40
53978;DHT22;39886;47.984;-1.586;2022-11-04T11:39:21;20.90;63.70
53978;DHT22;39886;47.984;-1.586;2022-11-04T11:41:57;20.90;63.50
53978;DHT22;39886;47.984;-1.586;2022-11-04T11:44:31;20.90;63.40
53978;DHT22;39886;47.984;-1.586;2022-11-04T11:47:05;20.80;63.20
53978;DHT22;39886;47.984;-1.586;2022-11-04T11:49:33;20.80;63.20
53978;DHT22;39886;47.984;-1.586;2022-11-04T11:54:42;20.80;63.20
53978;DHT22;39886;47.984;-1.586;2022-11-04T12:00:08;20.80;63.10
53978;DHT22;39886;47.984;-1.586;2022-11-04T12:05:13;20.70;63.00
53978;DHT22;39886;47.984;-1.586;2022-11-04T12:13:36;20.70;62.90
53978;DHT22;39886;47.984;-1.586;2022-11-04T12:16:25;20.60;62.90
53978;DHT22;39886;47.984;-1.586;2022-11-04T12:19:14;20.60;62.90
53978;DHT22;39886;47.984;-1.586;2022-11-04T12:27:33;20.50;62.80
53978;DHT22;39886;47.984;-1.586;2022-11-04T12:36:29;20.50;63.00
53978;DHT22;39886;47.984;-1.586;2022-11-04T12:41:28;20.50;63.00
53978;DHT22;39886;47.984;-1.586;2022-11-04T12:44:32;20.50;62.90
53978;DHT22;39886;47.984;-1.586;2022-11-04T12:47:27;20.50;62.80
53978;DHT22;39886;47.984;-1.586;2022-11-04T13:01:20;20.50;62.80
53978;DHT22;39886;47.984;-1.586;2022-11-04T13:04:03;20.50;62.90
53978;DHT22;39886;47.984;-1.586;2022-11-04T13:06:43;20.50;62.90
53978;DHT22;39886;47.984;-1.586;2022-11-04T13:09:15;20.40;62.80
53978;DHT22;39886;47.984;-1.586;2022-11-04T13:11:49;20.50;63.80
53978;DHT22;39886;47.984;-1.586;2022-11-04T13:14:25;20.50;63.10
53978;DHT22;39886;47.984;-1.586;2022-11-04T13:17:08;20.40;63.20
53978;DHT22;39886;47.984;-1.586;2022-11-04T13:19:44;20.50;63.10
53978;DHT22;39886;47.984;-1.586;2022-11-04T13:22:16;20.50;63.00
53978;DHT22;39886;47.984;-1.586;2022-11-04T13:24:56;20.50;63.00
53978;DHT22;39886;47.984;-1.586;2022-11-04T13:27:35;20.50;63.00
53978;DHT22;39886;47.984;-1.586;2022-11-04T13:30:34;20.50;63.10
53978;DHT22;39886;47.984;-1.586;2022-11-04T13:35:52;20.50;63.20
53978;DHT22;39886;47.984;-1.586;2022-11-04T13:38:41;20.50;63.00
53978;DHT22;39886;47.984;-1.586;2022-11-04T13:43:58;20.50;62.80
53978;DHT22;39886;47.984;-1.586;2022-11-04T13:46:31;20.50;62.90
53978;DHT22;39886;47.984;-1.586;2022-11-04T13:49:05;20.50;63.00
53978;DHT22;39886;47.984;-1.586;2022-11-04T13:51:44;20.50;63.00
53978;DHT22;39886;47.984;-1.586;2022-11-04T13:59:35;20.50;62.90
53978;DHT22;39886;47.984;-1.586;2022-11-04T14:04:40;20.50;62.90
53978;DHT22;39886;47.984;-1.586;2022-11-04T14:07:11;20.60;62.90
53978;DHT22;39886;47.984;-1.586;2022-11-04T14:14:45;20.60;62.90
53978;DHT22;39886;47.984;-1.586;2022-11-04T14:20:26;20.60;62.80
53978;DHT22;39886;47.984;-1.586;2022-11-04T14:23:04;20.60;62.70
53978;DHT22;39886;47.984;-1.586;2022-11-04T14:30:50;20.60;62.80
53978;DHT22;39886;47.984;-1.586;2022-11-04T14:35:55;20.50;62.70
53978;DHT22;39886;47.984;-1.586;2022-11-04T14:38:27;20.60;62.80
53978;DHT22;39886;47.984;-1.586;2022-11-04T14:43:42;20.50;62.90
53978;DHT22;39886;47.984;-1.586;2022-11-04T14:46:11;20.50;62.80
53978;DHT22;39886;47.984;-1.586;2022-11-04T14:48:42;20.50;62.90
53978;DHT22;39886;47.984;-1.586;2022-11-04T14:51:23;20.50;63.10
53978;DHT22;39886;47.984;-1.586;2022-11-04T14:53:53;20.50;63.20
53978;DHT22;39886;47.984;-1.586;2022-11-04T14:56:22;20.50;63.10
53978;DHT22;39886;47.984;-1.586;2022-11-04T14:59:05;20.50;63.10
53978;DHT22;39886;47.984;-1.586;2022-11-04T15:01:36;20.50;63.30
53978;DHT22;39886;47.984;-1.586;2022-11-04T15:04:26;20.50;63.30
53978;DHT22;39886;47.984;-1.586;2022-11-04T15:06:57;20.50;63.40
53978;DHT22;39886;47.984;-1.586;2022-11-04T15:09:28;20.50;63.20
53978;DHT22;39886;47.984;-1.586;2022-11-04T15:12:11;20.50;63.10
53978;DHT22;39886;47.984;-1.586;2022-11-04T15:14:57;20.50;63.10
53978;DHT22;39886;47.984;-1.586;2022-11-04T15:17:26;20.50;63.20
53978;DHT22;39886;47.984;-1.586;2022-11-04T15:19:55;20.50;63.20
53978;DHT22;39886;47.984;-1.586;2022-11-04T15:22:22;20.50;63.00
53978;DHT22;39886;47.984;-1.586;2022-11-04T15:24:49;20.50;63.10
53978;DHT22;39886;47.984;-1.586;2022-11-04T15:27:20;20.50;63.20
53978;DHT22;39886;47.984;-1.586;2022-11-04T15:30:27;20.50;63.40
53978;DHT22;39886;47.984;-1.586;2022-11-04T15:32:54;20.50;63.40
53978;DHT22;39886;47.984;-1.586;2022-11-04T15:35:21;20.50;63.20
53978;DHT22;39886;47.984;-1.586;2022-11-04T15:37:47;20.50;63.00
53978;DHT22;39886;47.984;-1.586;2022-11-04T15:40:14;20.50;63.10
53978;DHT22;39886;47.984;-1.586;2022-11-04T15:42:42;20.50;63.40
53978;DHT22;39886;47.984;-1.586;2022-11-04T15:45:26;20.50;63.40
53978;DHT22;39886;47.984;-1.586;2022-11-04T15:48:31;20.50;63.30
53978;DHT22;39886;47.984;-1.586;2022-11-04T15:51:21;20.50;63.30
53978;DHT22;39886;47.984;-1.586;2022-11-04T15:54:19;20.50;63.50
53978;DHT22;39886;47.984;-1.586;2022-11-04T15:56:49;20.50;63.20
53978;DHT22;39886;47.984;-1.586;2022-11-04T15:59:31;20.50;63.00
53978;DHT22;39886;47.984;-1.586;2022-11-04T16:01:58;20.50;63.50
53978;DHT22;39886;47.984;-1.586;2022-11-04T16:04:26;20.50;63.30
53978;DHT22;39886;47.984;-1.586;2022-11-04T16:07:05;20.50;63.60
53978;DHT22;39886;47.984;-1.586;2022-11-04T16:09:46;20.50;63.50
53978;DHT22;39886;47.984;-1.586;2022-11-04T16:15:00;20.40;63.50
53978;DHT22;39886;47.984;-1.586;2022-11-04T16:17:27;20.40;63.50
53978;DHT22;39886;47.984;-1.586;2022-11-04T16:20:01;20.40;63.50
53978;DHT22;39886;47.984;-1.586;2022-11-04T16:22:33;20.40;63.50
53978;DHT22;39886;47.984;-1.586;2022-11-04T16:25:06;20.50;63.40
53978;DHT22;39886;47.984;-1.586;2022-11-04T16:27:33;20.50;63.10
53978;DHT22;39886;47.984;-1.586;2022-11-04T16:30:17;20.70;62.50
53978;DHT22;39886;47.984;-1.586;2022-11-04T16:32:48;20.80;62.20
53978;DHT22;39886;47.984;-1.586;2022-11-04T16:35:20;20.90;61.90
53978;DHT22;39886;47.984;-1.586;2022-11-04T16:37:47;21.00;61.30
53978;DHT22;39886;47.984;-1.586;2022-11-04T16:40:13;21.00;61.30
53978;DHT22;39886;47.984;-1.586;2022-11-04T16:42:41;21.10;61.10
53978;DHT22;39886;47.984;-1.586;2022-11-04T16:45:09;21.20;61.00
53978;DHT22;39886;47.984;-1.586;2022-11-04T16:47:41;21.20;60.70
53978;DHT22;39886;47.984;-1.586;2022-11-04T16:50:14;21.20;60.60
53978;DHT22;39886;47.984;-1.586;2022-11-04T16:52:40;21.30;60.60
53978;DHT22;39886;47.984;-1.586;2022-11-04T16:55:07;21.30;60.40
53978;DHT22;39886;47.984;-1.586;2022-11-04T16:57:33;21.30;60.20
53978;DHT22;39886;47.984;-1.586;2022-11-04T16:59:59;21.40;60.00
53978;DHT22;39886;47.984;-1.586;2022-11-04T17:02:28;21.40;59.90
53978;DHT22;39886;47.984;-1.586;2022-11-04T17:04:57;21.40;59.80
53978;DHT22;39886;47.984;-1.586;2022-11-04T17:07:23;21.40;59.70
53978;DHT22;39886;47.984;-1.586;2022-11-04T17:09:49;21.50;59.50
53978;DHT22;39886;47.984;-1.586;2022-11-04T17:12:15;21.50;59.30
53978;DHT22;39886;47.984;-1.586;2022-11-04T17:14:41;21.50;59.10
53978;DHT22;39886;47.984;-1.586;2022-11-04T17:17:08;21.50;59.00
53978;DHT22;39886;47.984;-1.586;2022-11-04T17:19:34;21.60;58.80
53978;DHT22;39886;47.984;-1.586;2022-11-04T17:22:01;21.60;58.60
53978;DHT22;39886;47.984;-1.586;2022-11-04T17:24:28;21.60;58.40
53978;DHT22;39886;47.984;-1.586;2022-11-04T17:26:54;21.60;58.30
53978;DHT22;39886;47.984;-1.586;2022-11-04T17:29:20;21.60;58.20
53978;DHT22;39886;47.984;-1.586;2022-11-04T17:31:45;21.60;58.10
53978;DHT22;39886;47.984;-1.586;2022-11-04T17:34:11;21.60;57.90
53978;DHT22;39886;47.984;-1.586;2022-11-04T17:36:37;21.60;58.00
53978;DHT22;39886;47.984;-1.586;2022-11-04T17:39:03;21.50;58.40
53978;DHT22;39886;47.984;-1.586;2022-11-04T17:41:29;21.30;58.40
53978;DHT22;39886;47.984;-1.586;2022-11-04T17:44:13;21.20;58.60
53978;DHT22;39886;47.984;-1.586;2022-11-04T17:46:38;21.10;58.90
53978;DHT22;39886;47.984;-1.586;2022-11-04T17:49:17;21.10;58.80
53978;DHT22;39886;47.984;-1.586;2022-11-04T17:51:46;21.00;59.00